Adamsville, TN

5:24 PM CST on December 22, 2014 (GMT -0600)
HardinCountyWeather.com | Change Station
CLOSE
Current Station
Personal Weather Station
Location: Savannah, TN
Elevation: 443 ft
Nearby Weather Stations

Elev 443 ft 35.26 °N, 88.22 °W | Updated 6 seconds ago

Overcast
Overcast
53.2 °F
Feels Like 53.2 °F
N
2.0
Wind Variable Wind from ESE
Gusts 5.0 mph

Today
High -- | Low -- °F
--% Chance of Precip.
Yesterday
High -- | Low -- °F
Precip. -- in
6:58 AM 4:45 PM
New Moon, 1% visible
Pressure 29.66 in
Visibility 3.0 miles
Clouds Overcast 400 ft
Dew Point 52 °F
Humidity 94%
Rainfall 0.00 in
Snow Depth Not available.
UV 0 out of 12
Pollen .10 out of 12
Air Quality Not available.
Flu Activity Not available.
METAR KCRX 222315Z AUTO 15010KT 3SM BR OVC004 12/11 A2966 RMK AO2

More Conditions Fewer Conditions

Pressure 29.66 in
Visibility 3.0 miles
Clouds Overcast 400 ft
Dew Point 52 °F
Humidity 94%
Rainfall 0.00 in
Snow Depth Not available.
UV 0 out of 12
Pollen .10 out of 12
Air Quality Not available.
Flu Activity Not available.
METAR KCRX 222315Z AUTO 15010KT 3SM BR OVC004 12/11 A2966 RMK AO2

More Conditions Fewer Conditions

10-Day Weather Forecast

Almanac

Astronomy

Dec. 22, 2014 Rise Set
Actual Time
Civil Twilight
Nautical Twilight
Astronomical Twilight
Moon
Length of Visible Light
Length of Day
Tomorrow will be .
, % of the Moon is Illuminated

Today's Extremes

State Highs State Lows

Community

WunderPhotos

Upload Photos

1,779,713 photos uploaded!

WunderBlogs® & News

Nearby

Air Quality

  Air Quality AQ Index Pollutant
Not available.

Snow Depth

Station Depth Elevation

Earthquake Activity

City Distance Mag. Time & Date
Minimum magnitude displayed is 2.5.

Coastal Water Temperatures

Place Temperature

Nearby Weather Stations